sensor_id;sensor_type;location;lat;lon;timestamp;P1;durP1;ratioP1;P2;durP2;ratioP2
32096;SDS011;18610;49.916;8.284;2024-03-23T00:55:14;20.05;;;13.35;;
32096;SDS011;18610;49.916;8.284;2024-03-23T00:57:41;23.63;;;13.15;;
32096;SDS011;18610;49.916;8.284;2024-03-23T01:00:06;31.70;;;14.93;;
32096;SDS011;18610;49.916;8.284;2024-03-23T01:02:35;27.63;;;15.48;;
32096;SDS011;18610;49.916;8.284;2024-03-23T01:05:01;27.80;;;16.88;;
32096;SDS011;18610;49.916;8.284;2024-03-23T01:07:27;35.38;;;18.80;;
32096;SDS011;18610;49.916;8.284;2024-03-23T01:09:54;31.88;;;15.68;;
32096;SDS011;18610;49.916;8.284;2024-03-23T01:12:21;32.10;;;16.95;;
32096;SDS011;18610;49.916;8.284;2024-03-23T01:14:48;37.90;;;18.70;;
32096;SDS011;18610;49.916;8.284;2024-03-23T01:17:13;44.13;;;22.20;;
32096;SDS011;18610;49.916;8.284;2024-03-23T01:19:40;38.50;;;22.45;;
32096;SDS011;18610;49.916;8.284;2024-03-23T01:22:06;44.58;;;25.83;;
32096;SDS011;18610;49.916;8.284;2024-03-23T01:24:35;42.90;;;24.20;;
32096;SDS011;18610;49.916;8.284;2024-03-23T01:27:02;45.55;;;25.63;;
32096;SDS011;18610;49.916;8.284;2024-03-23T01:29:28;47.85;;;24.85;;
32096;SDS011;18610;49.916;8.284;2024-03-23T01:31:54;43.45;;;24.75;;
32096;SDS011;18610;49.916;8.284;2024-03-23T01:34:21;41.28;;;22.90;;
32096;SDS011;18610;49.916;8.284;2024-03-23T01:36:47;45.35;;;22.83;;
32096;SDS011;18610;49.916;8.284;2024-03-23T01:39:13;38.15;;;23.27;;
32096;SDS011;18610;49.916;8.284;2024-03-23T01:41:39;43.78;;;23.55;;
32096;SDS011;18610;49.916;8.284;2024-03-23T01:44:08;43.20;;;24.10;;
32096;SDS011;18610;49.916;8.284;2024-03-23T01:46:35;48.72;;;24.27;;
32096;SDS011;18610;49.916;8.284;2024-03-23T01:49:03;36.88;;;22.80;;
32096;SDS011;18610;49.916;8.284;2024-03-23T01:51:30;45.90;;;23.77;;
32096;SDS011;18610;49.916;8.284;2024-03-23T01:53:58;40.17;;;23.60;;
32096;SDS011;18610;49.916;8.284;2024-03-23T01:56:25;43.88;;;25.35;;
32096;SDS011;18610;49.916;8.284;2024-03-23T01:58:52;47.58;;;24.88;;
32096;SDS011;18610;49.916;8.284;2024-03-23T02:01:19;50.33;;;25.67;;
32096;SDS011;18610;49.916;8.284;2024-03-23T02:03:46;43.92;;;25.90;;
32096;SDS011;18610;49.916;8.284;2024-03-23T02:06:12;46.28;;;25.98;;
32096;SDS011;18610;49.916;8.284;2024-03-23T02:08:38;46.42;;;26.35;;
32096;SDS011;18610;49.916;8.284;2024-03-23T02:11:05;47.22;;;26.38;;
32096;SDS011;18610;49.916;8.284;2024-03-23T02:13:31;53.65;;;29.48;;
32096;SDS011;18610;49.916;8.284;2024-03-23T02:15:57;53.75;;;26.77;;
32096;SDS011;18610;49.916;8.284;2024-03-23T02:18:25;53.22;;;30.77;;
32096;SDS011;18610;49.916;8.284;2024-03-23T02:20:51;50.95;;;28.05;;
32096;SDS011;18610;49.916;8.284;2024-03-23T02:23:19;54.70;;;28.23;;
32096;SDS011;18610;49.916;8.284;2024-03-23T02:25:45;51.50;;;28.25;;
32096;SDS011;18610;49.916;8.284;2024-03-23T02:28:12;44.78;;;26.33;;
32096;SDS011;18610;49.916;8.284;2024-03-23T02:30:37;47.03;;;26.75;;
32096;SDS011;18610;49.916;8.284;2024-03-23T02:33:04;47.67;;;27.08;;
32096;SDS011;18610;49.916;8.284;2024-03-23T02:35:30;52.33;;;26.95;;
32096;SDS011;18610;49.916;8.284;2024-03-23T02:37:57;50.10;;;27.10;;
32096;SDS011;18610;49.916;8.284;2024-03-23T02:40:24;46.80;;;24.95;;
32096;SDS011;18610;49.916;8.284;2024-03-23T02:42:51;48.33;;;26.05;;
32096;SDS011;18610;49.916;8.284;2024-03-23T02:45:17;48.33;;;24.38;;
32096;SDS011;18610;49.916;8.284;2024-03-23T02:47:43;43.25;;;24.50;;
32096;SDS011;18610;49.916;8.284;2024-03-23T02:50:09;40.38;;;25.17;;
32096;SDS011;18610;49.916;8.284;2024-03-23T02:52:36;41.58;;;23.85;;
32096;SDS011;18610;49.916;8.284;2024-03-23T02:55:02;32.83;;;20.27;;
32096;SDS011;18610;49.916;8.284;2024-03-23T02:57:30;39.50;;;22.83;;
32096;SDS011;18610;49.916;8.284;2024-03-23T02:59:56;37.60;;;20.27;;
32096;SDS011;18610;49.916;8.284;2024-03-23T03:02:23;43.38;;;21.40;;
32096;SDS011;18610;49.916;8.284;2024-03-23T03:04:49;39.17;;;20.90;;
32096;SDS011;18610;49.916;8.284;2024-03-23T03:07:15;34.67;;;19.45;;
32096;SDS011;18610;49.916;8.284;2024-03-23T03:09:41;30.38;;;19.33;;
32096;SDS011;18610;49.916;8.284;2024-03-23T03:12:08;36.35;;;18.50;;
32096;SDS011;18610;49.916;8.284;2024-03-23T03:14:35;33.17;;;17.58;;
32096;SDS011;18610;49.916;8.284;2024-03-23T03:17:02;30.40;;;17.67;;
32096;SDS011;18610;49.916;8.284;2024-03-23T03:19:28;30.90;;;18.80;;
32096;SDS011;18610;49.916;8.284;2024-03-23T03:21:55;27.38;;;19.02;;
32096;SDS011;18610;49.916;8.284;2024-03-23T03:24:21;30.75;;;18.17;;
32096;SDS011;18610;49.916;8.284;2024-03-23T03:26:48;32.35;;;18.98;;
32096;SDS011;18610;49.916;8.284;2024-03-23T03:29:14;37.83;;;19.27;;
32096;SDS011;18610;49.916;8.284;2024-03-23T03:31:43;35.45;;;19.02;;
32096;SDS011;18610;49.916;8.284;2024-03-23T03:34:09;32.45;;;18.80;;
32096;SDS011;18610;49.916;8.284;2024-03-23T03:36:35;35.22;;;18.00;;
32096;SDS011;18610;49.916;8.284;2024-03-23T03:39:01;34.63;;;19.38;;
32096;SDS011;18610;49.916;8.284;2024-03-23T03:41:29;31.90;;;19.40;;
32096;SDS011;18610;49.916;8.284;2024-03-23T03:43:56;34.70;;;20.15;;
32096;SDS011;18610;49.916;8.284;2024-03-23T03:46:26;34.30;;;20.20;;
32096;SDS011;18610;49.916;8.284;2024-03-23T03:48:53;36.13;;;19.65;;
32096;SDS011;18610;49.916;8.284;2024-03-23T03:51:20;34.67;;;19.55;;
32096;SDS011;18610;49.916;8.284;2024-03-23T03:53:46;31.95;;;20.65;;
32096;SDS011;18610;49.916;8.284;2024-03-23T03:56:12;37.50;;;20.13;;
32096;SDS011;18610;49.916;8.284;2024-03-23T03:58:38;29.90;;;18.25;;
32096;SDS011;18610;49.916;8.284;2024-03-23T04:01:05;30.95;;;18.02;;
32096;SDS011;18610;49.916;8.284;2024-03-23T04:03:31;26.70;;;17.05;;
32096;SDS011;18610;49.916;8.284;2024-03-23T04:05:59;27.58;;;17.13;;
32096;SDS011;18610;49.916;8.284;2024-03-23T04:08:24;30.55;;;16.00;;
32096;SDS011;18610;49.916;8.284;2024-03-23T04:10:51;23.67;;;13.68;;
32096;SDS011;18610;49.916;8.284;2024-03-23T04:13:17;15.55;;;10.32;;
32096;SDS011;18610;49.916;8.284;2024-03-23T04:15:43;13.02;;;7.47;;
32096;SDS011;18610;49.916;8.284;2024-03-23T04:18:09;6.60;;;4.88;;
32096;SDS011;18610;49.916;8.284;2024-03-23T04:20:36;4.10;;;2.92;;
32096;SDS011;18610;49.916;8.284;2024-03-23T04:23:03;8.52;;;3.58;;
32096;SDS011;18610;49.916;8.284;2024-03-23T04:25:30;3.95;;;2.92;;
32096;SDS011;18610;49.916;8.284;2024-03-23T04:27:56;6.30;;;3.20;;
32096;SDS011;18610;49.916;8.284;2024-03-23T04:30:23;4.80;;;2.50;;
32096;SDS011;18610;49.916;8.284;2024-03-23T04:32:50;3.92;;;2.67;;
32096;SDS011;18610;49.916;8.284;2024-03-23T04:35:16;4.88;;;2.15;;
32096;SDS011;18610;49.916;8.284;2024-03-23T04:37:42;3.47;;;2.30;;
32096;SDS011;18610;49.916;8.284;2024-03-23T04:40:11;7.53;;;2.08;;
32096;SDS011;18610;49.916;8.284;2024-03-23T04:42:37;2.17;;;1.77;;
32096;SDS011;18610;49.916;8.284;2024-03-23T04:45:04;2.80;;;2.20;;
32096;SDS011;18610;49.916;8.284;2024-03-23T04:47:32;4.55;;;2.15;;
32096;SDS011;18610;49.916;8.284;2024-03-23T04:50:00;3.63;;;1.63;;
32096;SDS011;18610;49.916;8.284;2024-03-23T04:52:27;8.60;;;1.70;;
32096;SDS011;18610;49.916;8.284;2024-03-23T04:54:54;2.22;;;1.25;;
32096;SDS011;18610;49.916;8.284;2024-03-23T04:57:22;1.52;;;1.40;;
32096;SDS011;18610;49.916;8.284;2024-03-23T04:59:49;6.35;;;1.30;;
32096;SDS011;18610;49.916;8.284;2024-03-23T05:02:15;2.13;;;1.20;;
32096;SDS011;18610;49.916;8.284;2024-03-23T05:04:41;1.60;;;1.33;;
32096;SDS011;18610;49.916;8.284;2024-03-23T05:07:07;1.95;;;1.75;;
32096;SDS011;18610;49.916;8.284;2024-03-23T05:09:34;4.05;;;2.00;;
32096;SDS011;18610;49.916;8.284;2024-03-23T05:12:00;2.55;;;2.28;;
32096;SDS011;18610;49.916;8.284;2024-03-23T05:14:28;2.90;;;2.30;;
32096;SDS011;18610;49.916;8.284;2024-03-23T05:16:53;3.97;;;2.42;;
32096;SDS011;18610;49.916;8.284;2024-03-23T05:19:20;2.83;;;1.95;;
32096;SDS011;18610;49.916;8.284;2024-03-23T05:21:46;3.75;;;2.38;;
32096;SDS011;18610;49.916;8.284;2024-03-23T05:24:13;6.40;;;3.30;;
32096;SDS011;18610;49.916;8.284;2024-03-23T05:26:38;3.90;;;2.78;;
32096;SDS011;18610;49.916;8.284;2024-03-23T05:29:05;4.03;;;2.63;;
32096;SDS011;18610;49.916;8.284;2024-03-23T05:31:37;3.53;;;2.95;;
32096;SDS011;18610;49.916;8.284;2024-03-23T05:34:03;2.85;;;2.40;;
32096;SDS011;18610;49.916;8.284;2024-03-23T05:36:29;4.47;;;3.33;;
32096;SDS011;18610;49.916;8.284;2024-03-23T05:38:57;3.60;;;2.72;;
32096;SDS011;18610;49.916;8.284;2024-03-23T05:41:23;4.82;;;3.13;;
32096;SDS011;18610;49.916;8.284;2024-03-23T05:43:49;4.40;;;2.95;;
32096;SDS011;18610;49.916;8.284;2024-03-23T05:46:15;2.75;;;2.10;;
32096;SDS011;18610;49.916;8.284;2024-03-23T05:48:44;3.88;;;1.83;;
32096;SDS011;18610;49.916;8.284;2024-03-23T05:51:10;3.65;;;2.00;;
32096;SDS011;18610;49.916;8.284;2024-03-23T05:53:37;2.58;;;1.58;;
32096;SDS011;18610;49.916;8.284;2024-03-23T05:56:03;2.95;;;1.95;;
32096;SDS011;18610;49.916;8.284;2024-03-23T05:58:31;2.95;;;1.45;;
32096;SDS011;18610;49.916;8.284;2024-03-23T06:00:57;1.83;;;1.30;;
32096;SDS011;18610;49.916;8.284;2024-03-23T06:03:24;1.58;;;1.25;;
32096;SDS011;18610;49.916;8.284;2024-03-23T06:05:52;3.03;;;1.20;;
32096;SDS011;18610;49.916;8.284;2024-03-23T06:08:18;1.25;;;1.10;;
32096;SDS011;18610;49.916;8.284;2024-03-23T06:10:45;1.20;;;0.98;;
32096;SDS011;18610;49.916;8.284;2024-03-23T06:13:11;8.43;;;1.48;;
32096;SDS011;18610;49.916;8.284;2024-03-23T06:15:37;2.67;;;1.38;;
32096;SDS011;18610;49.916;8.284;2024-03-23T06:18:03;3.47;;;1.10;;
32096;SDS011;18610;49.916;8.284;2024-03-23T06:20:32;2.17;;;1.25;;
32096;SDS011;18610;49.916;8.284;2024-03-23T06:22:59;3.72;;;1.00;;
32096;SDS011;18610;49.916;8.284;2024-03-23T06:25:26;1.27;;;1.02;;
32096;SDS011;18610;49.916;8.284;2024-03-23T06:27:52;4.05;;;1.38;;
32096;SDS011;18610;49.916;8.284;2024-03-23T06:30:18;1.35;;;1.02;;
32096;SDS011;18610;49.916;8.284;2024-03-23T06:32:44;1.40;;;1.05;;
32096;SDS011;18610;49.916;8.284;2024-03-23T06:35:11;0.90;;;0.90;;
32096;SDS011;18610;49.916;8.284;2024-03-23T06:37:36;1.58;;;1.35;;
32096;SDS011;18610;49.916;8.284;2024-03-23T06:40:06;1.20;;;1.17;;
32096;SDS011;18610;49.916;8.284;2024-03-23T06:42:34;1.30;;;1.20;;
32096;SDS011;18610;49.916;8.284;2024-03-23T06:45:01;2.03;;;1.10;;
32096;SDS011;18610;49.916;8.284;2024-03-23T06:47:27;1.90;;;1.40;;
32096;SDS011;18610;49.916;8.284;2024-03-23T06:49:54;2.95;;;1.40;;
32096;SDS011;18610;49.916;8.284;2024-03-23T06:52:19;3.05;;;1.60;;
32096;SDS011;18610;49.916;8.284;2024-03-23T06:54:46;3.65;;;1.75;;
32096;SDS011;18610;49.916;8.284;2024-03-23T06:57:13;3.53;;;1.80;;
32096;SDS011;18610;49.916;8.284;2024-03-23T06:59:40;7.28;;;2.33;;
32096;SDS011;18610;49.916;8.284;2024-03-23T07:02:05;4.30;;;2.00;;
32096;SDS011;18610;49.916;8.284;2024-03-23T07:04:33;7.13;;;2.30;;
32096;SDS011;18610;49.916;8.284;2024-03-23T07:06:59;6.03;;;2.45;;
32096;SDS011;18610;49.916;8.284;2024-03-23T07:09:26;4.22;;;2.15;;
32096;SDS011;18610;49.916;8.284;2024-03-23T07:11:53;5.43;;;2.40;;
32096;SDS011;18610;49.916;8.284;2024-03-23T07:14:22;6.28;;;2.72;;
32096;SDS011;18610;49.916;8.284;2024-03-23T07:16:48;5.07;;;2.85;;
32096;SDS011;18610;49.916;8.284;2024-03-23T07:19:15;5.00;;;2.40;;
32096;SDS011;18610;49.916;8.284;2024-03-23T07:21:41;9.57;;;3.20;;
32096;SDS011;18610;49.916;8.284;2024-03-23T07:24:08;5.70;;;2.78;;
32096;SDS011;18610;49.916;8.284;2024-03-23T07:26:34;11.55;;;3.10;;
32096;SDS011;18610;49.916;8.284;2024-03-23T07:29:01;11.25;;;2.83;;
32096;SDS011;18610;49.916;8.284;2024-03-23T07:31:28;6.95;;;3.33;;
32096;SDS011;18610;49.916;8.284;2024-03-23T07:33:55;9.05;;;3.67;;
32096;SDS011;18610;49.916;8.284;2024-03-23T07:36:20;11.70;;;4.65;;
32096;SDS011;18610;49.916;8.284;2024-03-23T07:38:47;10.85;;;4.45;;
32096;SDS011;18610;49.916;8.284;2024-03-23T07:41:14;9.40;;;3.97;;
32096;SDS011;18610;49.916;8.284;2024-03-23T07:43:42;10.10;;;4.18;;
32096;SDS011;18610;49.916;8.284;2024-03-23T07:46:08;10.75;;;4.95;;
32096;SDS011;18610;49.916;8.284;2024-03-23T07:48:36;6.72;;;3.88;;
32096;SDS011;18610;49.916;8.284;2024-03-23T07:51:03;7.28;;;3.90;;
32096;SDS011;18610;49.916;8.284;2024-03-23T07:53:31;14.32;;;4.70;;
32096;SDS011;18610;49.916;8.284;2024-03-23T07:55:57;10.60;;;4.18;;
32096;SDS011;18610;49.916;8.284;2024-03-23T07:58:25;8.63;;;4.47;;
32096;SDS011;18610;49.916;8.284;2024-03-23T08:00:51;14.65;;;4.90;;
32096;SDS011;18610;49.916;8.284;2024-03-23T08:03:18;16.77;;;5.43;;
32096;SDS011;18610;49.916;8.284;2024-03-23T08:05:46;9.60;;;4.90;;
32096;SDS011;18610;49.916;8.284;2024-03-23T08:08:13;6.88;;;4.57;;
32096;SDS011;18610;49.916;8.284;2024-03-23T08:10:47;11.48;;;4.60;;
32096;SDS011;18610;49.916;8.284;2024-03-23T08:13:14;9.85;;;4.32;;
32096;SDS011;18610;49.916;8.284;2024-03-23T08:15:40;18.20;;;5.63;;
32096;SDS011;18610;49.916;8.284;2024-03-23T08:18:07;14.38;;;4.60;;
32096;SDS011;18610;49.916;8.284;2024-03-23T08:20:33;13.55;;;4.10;;
32096;SDS011;18610;49.916;8.284;2024-03-23T08:23:01;13.13;;;5.05;;
32096;SDS011;18610;49.916;8.284;2024-03-23T08:25:27;12.27;;;4.63;;
32096;SDS011;18610;49.916;8.284;2024-03-23T08:27:57;13.80;;;4.90;;
32096;SDS011;18610;49.916;8.284;2024-03-23T08:30:22;14.45;;;4.75;;
32096;SDS011;18610;49.916;8.284;2024-03-23T08:32:49;16.63;;;3.72;;
32096;SDS011;18610;49.916;8.284;2024-03-23T08:35:15;22.48;;;5.57;;
32096;SDS011;18610;49.916;8.284;2024-03-23T08:37:42;14.95;;;4.57;;
32096;SDS011;18610;49.916;8.284;2024-03-23T08:40:09;15.48;;;4.18;;
32096;SDS011;18610;49.916;8.284;2024-03-23T08:42:36;15.82;;;4.28;;
32096;SDS011;18610;49.916;8.284;2024-03-23T08:45:02;11.45;;;4.03;;
32096;SDS011;18610;49.916;8.284;2024-03-23T08:47:32;12.55;;;4.22;;
32096;SDS011;18610;49.916;8.284;2024-03-23T08:49:59;11.63;;;4.30;;
32096;SDS011;18610;49.916;8.284;2024-03-23T08:52:26;15.20;;;4.80;;
32096;SDS011;18610;49.916;8.284;2024-03-23T08:54:53;15.93;;;4.05;;
32096;SDS011;18610;49.916;8.284;2024-03-23T08:57:22;21.58;;;4.45;;
32096;SDS011;18610;49.916;8.284;2024-03-23T08:59:48;15.68;;;4.05;;
32096;SDS011;18610;49.916;8.284;2024-03-23T09:02:14;14.60;;;4.05;;
32096;SDS011;18610;49.916;8.284;2024-03-23T09:04:40;28.38;;;6.00;;
32096;SDS011;18610;49.916;8.284;2024-03-23T09:07:07;17.10;;;3.88;;
32096;SDS011;18610;49.916;8.284;2024-03-23T09:09:33;20.45;;;4.15;;
32096;SDS011;18610;49.916;8.284;2024-03-23T09:11:59;19.02;;;4.20;;
32096;SDS011;18610;49.916;8.284;2024-03-23T09:14:27;19.63;;;4.07;;
32096;SDS011;18610;49.916;8.284;2024-03-23T09:16:54;12.15;;;4.10;;
32096;SDS011;18610;49.916;8.284;2024-03-23T09:19:20;15.68;;;3.88;;
32096;SDS011;18610;49.916;8.284;2024-03-23T09:21:47;13.93;;;3.00;;
32096;SDS011;18610;49.916;8.284;2024-03-23T09:24:14;14.02;;;2.92;;
32096;SDS011;18610;49.916;8.284;2024-03-23T09:26:40;13.07;;;2.78;;
32096;SDS011;18610;49.916;8.284;2024-03-23T09:29:06;18.48;;;3.33;;
32096;SDS011;18610;49.916;8.284;2024-03-23T09:31:34;13.30;;;3.20;;
32096;SDS011;18610;49.916;8.284;2024-03-23T09:34:00;8.65;;;2.65;;
32096;SDS011;18610;49.916;8.284;2024-03-23T09:36:26;13.57;;;3.60;;
32096;SDS011;18610;49.916;8.284;2024-03-23T09:38:52;13.30;;;3.63;;
32096;SDS011;18610;49.916;8.284;2024-03-23T09:41:19;8.55;;;2.08;;
32096;SDS011;18610;49.916;8.284;2024-03-23T09:43:45;15.82;;;3.05;;
32096;SDS011;18610;49.916;8.284;2024-03-23T09:46:13;14.55;;;3.20;;
32096;SDS011;18610;49.916;8.284;2024-03-23T09:48:40;14.98;;;3.72;;
32096;SDS011;18610;49.916;8.284;2024-03-23T09:51:09;12.05;;;3.45;;
32096;SDS011;18610;49.916;8.284;2024-03-23T09:53:35;13.60;;;2.90;;
32096;SDS011;18610;49.916;8.284;2024-03-23T09:56:03;13.77;;;2.83;;
32096;SDS011;18610;49.916;8.284;2024-03-23T09:58:29;11.43;;;2.30;;
32096;SDS011;18610;49.916;8.284;2024-03-23T10:00:57;13.50;;;2.28;;
32096;SDS011;18610;49.916;8.284;2024-03-23T10:03:22;19.27;;;3.33;;
32096;SDS011;18610;49.916;8.284;2024-03-23T10:06:00;12.68;;;2.78;;
32096;SDS011;18610;49.916;8.284;2024-03-23T10:08:27;11.15;;;2.70;;
32096;SDS011;18610;49.916;8.284;2024-03-23T10:10:55;13.15;;;2.83;;
32096;SDS011;18610;49.916;8.284;2024-03-23T10:13:24;17.63;;;3.00;;
32096;SDS011;18610;49.916;8.284;2024-03-23T10:15:55;22.63;;;2.97;;
32096;SDS011;18610;49.916;8.284;2024-03-23T10:18:22;10.95;;;2.85;;
32096;SDS011;18610;49.916;8.284;2024-03-23T10:20:50;13.48;;;2.58;;
32096;SDS011;18610;49.916;8.284;2024-03-23T10:23:19;14.38;;;2.75;;
32096;SDS011;18610;49.916;8.284;2024-03-23T10:25:45;19.50;;;2.72;;
32096;SDS011;18610;49.916;8.284;2024-03-23T10:28:11;16.15;;;2.03;;
32096;SDS011;18610;49.916;8.284;2024-03-23T10:30:38;13.25;;;1.70;;
32096;SDS011;18610;49.916;8.284;2024-03-23T10:33:07;17.02;;;2.10;;
32096;SDS011;18610;49.916;8.284;2024-03-23T10:35:34;10.57;;;2.55;;
32096;SDS011;18610;49.916;8.284;2024-03-23T10:38:02;11.52;;;2.55;;
32096;SDS011;18610;49.916;8.284;2024-03-23T10:40:32;11.60;;;2.30;;
32096;SDS011;18610;49.916;8.284;2024-03-23T10:43:00;12.10;;;2.20;;
32096;SDS011;18610;49.916;8.284;2024-03-23T10:45:28;14.10;;;2.70;;
32096;SDS011;18610;49.916;8.284;2024-03-23T10:47:55;9.20;;;2.33;;
32096;SDS011;18610;49.916;8.284;2024-03-23T10:50:21;13.18;;;2.92;;
32096;SDS011;18610;49.916;8.284;2024-03-23T10:52:48;10.80;;;2.47;;
32096;SDS011;18610;49.916;8.284;2024-03-23T10:55:15;7.80;;;2.60;;
32096;SDS011;18610;49.916;8.284;2024-03-23T10:57:47;7.05;;;2.88;;
32096;SDS011;18610;49.916;8.284;2024-03-23T11:02:43;12.30;;;3.10;;
32096;SDS011;18610;49.916;8.284;2024-03-23T11:07:54;7.15;;;1.98;;
32096;SDS011;18610;49.916;8.284;2024-03-23T11:10:27;10.57;;;4.32;;
32096;SDS011;18610;49.916;8.284;2024-03-23T11:12:56;7.25;;;2.28;;
32096;SDS011;18610;49.916;8.284;2024-03-23T11:15:22;4.32;;;1.48;;
32096;SDS011;18610;49.916;8.284;2024-03-23T11:18:02;6.18;;;1.20;;
32096;SDS011;18610;49.916;8.284;2024-03-23T11:20:31;9.52;;;1.33;;
32096;SDS011;18610;49.916;8.284;2024-03-23T11:22:58;5.03;;;1.20;;
32096;SDS011;18610;49.916;8.284;2024-03-23T11:25:25;4.13;;;1.30;;
32096;SDS011;18610;49.916;8.284;2024-03-23T11:27:53;6.53;;;1.73;;
32096;SDS011;18610;49.916;8.284;2024-03-23T11:30:21;6.63;;;2.13;;
32096;SDS011;18610;49.916;8.284;2024-03-23T11:32:50;8.05;;;1.40;;
32096;SDS011;18610;49.916;8.284;2024-03-23T11:35:26;8.05;;;2.00;;
32096;SDS011;18610;49.916;8.284;2024-03-23T11:38:03;8.98;;;2.13;;
32096;SDS011;18610;49.916;8.284;2024-03-23T11:40:30;7.88;;;2.22;;
32096;SDS011;18610;49.916;8.284;2024-03-23T11:42:58;19.42;;;3.05;;
32096;SDS011;18610;49.916;8.284;2024-03-23T11:45:26;22.45;;;4.95;;
32096;SDS011;18610;49.916;8.284;2024-03-23T11:48:01;15.38;;;3.88;;
32096;SDS011;18610;49.916;8.284;2024-03-23T11:50:28;10.98;;;3.22;;
32096;SDS011;18610;49.916;8.284;2024-03-23T11:53:05;14.48;;;3.63;;
32096;SDS011;18610;49.916;8.284;2024-03-23T11:55:38;14.45;;;3.83;;
32096;SDS011;18610;49.916;8.284;2024-03-23T11:58:06;12.20;;;4.15;;
32096;SDS011;18610;49.916;8.284;2024-03-23T12:00:33;20.60;;;3.97;;
32096;SDS011;18610;49.916;8.284;2024-03-23T12:03:00;16.42;;;3.40;;
32096;SDS011;18610;49.916;8.284;2024-03-23T12:05:26;11.70;;;3.25;;
32096;SDS011;18610;49.916;8.284;2024-03-23T12:07:54;16.15;;;4.22;;
32096;SDS011;18610;49.916;8.284;2024-03-23T12:10:20;11.52;;;2.88;;
32096;SDS011;18610;49.916;8.284;2024-03-23T12:12:57;11.93;;;3.13;;
32096;SDS011;18610;49.916;8.284;2024-03-23T12:15:24;6.80;;;2.67;;
32096;SDS011;18610;49.916;8.284;2024-03-23T12:17:52;9.52;;;2.40;;
32096;SDS011;18610;49.916;8.284;2024-03-23T12:20:31;9.25;;;2.92;;
32096;SDS011;18610;49.916;8.284;2024-03-23T12:23:04;8.15;;;2.83;;
32096;SDS011;18610;49.916;8.284;2024-03-23T12:25:31;13.82;;;2.72;;
32096;SDS011;18610;49.916;8.284;2024-03-23T12:27:58;13.10;;;2.97;;
32096;SDS011;18610;49.916;8.284;2024-03-23T12:30:24;11.55;;;2.95;;
32096;SDS011;18610;49.916;8.284;2024-03-23T12:32:51;10.05;;;2.67;;
32096;SDS011;18610;49.916;8.284;2024-03-23T12:35:18;12.75;;;3.20;;
32096;SDS011;18610;49.916;8.284;2024-03-23T12:37:44;14.95;;;3.00;;
32096;SDS011;18610;49.916;8.284;2024-03-23T12:40:10;17.00;;;3.15;;
32096;SDS011;18610;49.916;8.284;2024-03-23T12:42:37;13.80;;;2.65;;
32096;SDS011;18610;49.916;8.284;2024-03-23T12:45:03;9.90;;;2.72;;
32096;SDS011;18610;49.916;8.284;2024-03-23T12:47:30;12.60;;;2.55;;
32096;SDS011;18610;49.916;8.284;2024-03-23T12:49:57;11.45;;;2.60;;
32096;SDS011;18610;49.916;8.284;2024-03-23T12:52:24;4.20;;;1.30;;
32096;SDS011;18610;49.916;8.284;2024-03-23T12:54:53;3.65;;;0.90;;
32096;SDS011;18610;49.916;8.284;2024-03-23T12:57:21;7.05;;;1.10;;
32096;SDS011;18610;49.916;8.284;2024-03-23T12:59:47;6.60;;;1.20;;
32096;SDS011;18610;49.916;8.284;2024-03-23T13:02:16;4.97;;;1.10;;
32096;SDS011;18610;49.916;8.284;2024-03-23T13:04:42;1.65;;;0.88;;
32096;SDS011;18610;49.916;8.284;2024-03-23T13:07:10;3.20;;;1.10;;
32096;SDS011;18610;49.916;8.284;2024-03-23T13:09:36;4.40;;;1.20;;
32096;SDS011;18610;49.916;8.284;2024-03-23T13:12:03;1.70;;;0.93;;
32096;SDS011;18610;49.916;8.284;2024-03-23T13:14:28;4.85;;;1.63;;
32096;SDS011;18610;49.916;8.284;2024-03-23T13:16:55;2.97;;;1.05;;
32096;SDS011;18610;49.916;8.284;2024-03-23T13:19:21;4.75;;;1.00;;
32096;SDS011;18610;49.916;8.284;2024-03-23T13:21:51;1.73;;;1.08;;
32096;SDS011;18610;49.916;8.284;2024-03-23T13:24:20;2.70;;;0.98;;
32096;SDS011;18610;49.916;8.284;2024-03-23T13:26:48;1.35;;;0.80;;
32096;SDS011;18610;49.916;8.284;2024-03-23T13:29:14;0.77;;;0.65;;
32096;SDS011;18610;49.916;8.284;2024-03-23T13:31:41;1.13;;;0.95;;
32096;SDS011;18610;49.916;8.284;2024-03-23T13:34:07;1.80;;;0.65;;
32096;SDS011;18610;49.916;8.284;2024-03-23T13:36:34;3.10;;;1.00;;
32096;SDS011;18610;49.916;8.284;2024-03-23T13:39:00;5.75;;;0.88;;
32096;SDS011;18610;49.916;8.284;2024-03-23T13:41:31;4.82;;;1.15;;
32096;SDS011;18610;49.916;8.284;2024-03-23T13:43:57;2.67;;;0.75;;
32096;SDS011;18610;49.916;8.284;2024-03-23T13:46:24;2.25;;;1.02;;
32096;SDS011;18610;49.916;8.284;2024-03-23T13:48:49;5.45;;;1.00;;
32096;SDS011;18610;49.916;8.284;2024-03-23T13:51:22;4.72;;;1.27;;
32096;SDS011;18610;49.916;8.284;2024-03-23T13:53:49;1.70;;;1.08;;
32096;SDS011;18610;49.916;8.284;2024-03-23T13:56:16;5.22;;;1.33;;
32096;SDS011;18610;49.916;8.284;2024-03-23T13:58:43;2.72;;;1.13;;
32096;SDS011;18610;49.916;8.284;2024-03-23T14:01:12;4.50;;;1.20;;
32096;SDS011;18610;49.916;8.284;2024-03-23T14:03:38;3.90;;;0.75;;
32096;SDS011;18610;49.916;8.284;2024-03-23T14:06:05;6.32;;;1.27;;
32096;SDS011;18610;49.916;8.284;2024-03-23T14:08:32;4.82;;;0.70;;
32096;SDS011;18610;49.916;8.284;2024-03-23T14:11:01;2.80;;;0.90;;
32096;SDS011;18610;49.916;8.284;2024-03-23T14:13:28;4.53;;;0.90;;
32096;SDS011;18610;49.916;8.284;2024-03-23T14:15:56;4.68;;;1.00;;
32096;SDS011;18610;49.916;8.284;2024-03-23T14:18:23;4.93;;;0.98;;
32096;SDS011;18610;49.916;8.284;2024-03-23T14:20:51;3.17;;;1.15;;
32096;SDS011;18610;49.916;8.284;2024-03-23T14:23:17;1.55;;;0.63;;
32096;SDS011;18610;49.916;8.284;2024-03-23T14:25:44;5.57;;;1.00;;
32096;SDS011;18610;49.916;8.284;2024-03-23T14:28:10;4.13;;;1.40;;
32096;SDS011;18610;49.916;8.284;2024-03-23T14:30:40;5.68;;;1.10;;
32096;SDS011;18610;49.916;8.284;2024-03-23T14:33:07;3.30;;;0.90;;
32096;SDS011;18610;49.916;8.284;2024-03-23T14:35:34;3.35;;;0.75;;
32096;SDS011;18610;49.916;8.284;2024-03-23T14:38:00;2.28;;;0.95;;
32096;SDS011;18610;49.916;8.284;2024-03-23T14:40:27;4.07;;;1.17;;
32096;SDS011;18610;49.916;8.284;2024-03-23T14:42:53;2.90;;;1.40;;
32096;SDS011;18610;49.916;8.284;2024-03-23T14:45:20;5.00;;;1.00;;
32096;SDS011;18610;49.916;8.284;2024-03-23T14:47:46;5.82;;;0.70;;
32096;SDS011;18610;49.916;8.284;2024-03-23T14:50:14;4.60;;;0.80;;
32096;SDS011;18610;49.916;8.284;2024-03-23T14:52:41;2.83;;;0.82;;
32096;SDS011;18610;49.916;8.284;2024-03-23T14:55:10;3.90;;;1.08;;
32096;SDS011;18610;49.916;8.284;2024-03-23T14:57:36;3.08;;;1.40;;
32096;SDS011;18610;49.916;8.284;2024-03-23T15:00:05;3.70;;;1.00;;
32096;SDS011;18610;49.916;8.284;2024-03-23T15:02:32;6.88;;;1.70;;
32096;SDS011;18610;49.916;8.284;2024-03-23T15:04:59;8.07;;;1.30;;
32096;SDS011;18610;49.916;8.284;2024-03-23T15:07:26;4.88;;;0.95;;
32096;SDS011;18610;49.916;8.284;2024-03-23T15:09:53;3.38;;;1.00;;
32096;SDS011;18610;49.916;8.284;2024-03-23T15:12:19;2.53;;;1.00;;
32096;SDS011;18610;49.916;8.284;2024-03-23T15:14:46;4.70;;;1.00;;
32096;SDS011;18610;49.916;8.284;2024-03-23T15:17:12;4.57;;;1.27;;
32096;SDS011;18610;49.916;8.284;2024-03-23T15:19:39;1.85;;;0.63;;
32096;SDS011;18610;49.916;8.284;2024-03-23T15:22:06;2.65;;;0.75;;
32096;SDS011;18610;49.916;8.284;2024-03-23T15:24:35;4.97;;;1.05;;
32096;SDS011;18610;49.916;8.284;2024-03-23T15:27:01;11.18;;;1.27;;
32096;SDS011;18610;49.916;8.284;2024-03-23T15:29:28;12.43;;;2.15;;
32096;SDS011;18610;49.916;8.284;2024-03-23T15:31:53;4.10;;;1.10;;
32096;SDS011;18610;49.916;8.284;2024-03-23T15:34:20;4.25;;;1.10;;
32096;SDS011;18610;49.916;8.284;2024-03-23T15:36:46;3.20;;;1.40;;